createdAt,value
2022-09-10T00:01:28.030Z,2.78
2022-09-10T00:03:56.549Z,3.40
2022-09-10T00:06:27.811Z,2.45
2022-09-10T00:08:59.026Z,2.83
2022-09-10T00:11:30.426Z,3.13
2022-09-10T00:14:01.558Z,3.70
2022-09-10T00:16:29.162Z,3.00
2022-09-10T00:18:57.349Z,3.33
2022-09-10T00:21:24.520Z,3.72
2022-09-10T00:23:51.453Z,2.95
2022-09-10T00:26:25.043Z,5.35
2022-09-10T00:28:54.336Z,2.55
2022-09-10T00:31:22.640Z,3.05
2022-09-10T00:36:21.336Z,3.20
2022-09-10T00:38:50.434Z,2.50
2022-09-10T00:41:18.488Z,2.53
2022-09-10T00:44:03.372Z,2.63
2022-09-10T00:46:43.768Z,2.35
2022-09-10T00:49:14.604Z,2.83
2022-09-10T00:51:41.954Z,3.65
2022-09-10T00:54:08.872Z,1.95
2022-09-10T00:56:35.775Z,2.50
2022-09-10T00:59:03.770Z,2.50
2022-09-10T01:01:31.145Z,3.40
2022-09-10T01:03:58.779Z,4.38
2022-09-10T01:06:25.623Z,2.15
2022-09-10T01:08:52.531Z,3.78
2022-09-10T01:11:38.076Z,2.63
2022-09-10T01:14:07.783Z,3.17
2022-09-10T01:16:37.256Z,3.55
2022-09-10T01:22:18.089Z,2.67
2022-09-10T01:24:57.230Z,3.45
2022-09-10T01:27:27.197Z,2.88
2022-09-10T01:29:59.042Z,2.78
2022-09-10T01:32:32.716Z,2.90
2022-09-10T01:35:05.181Z,2.85
2022-09-10T01:37:33.652Z,2.78
2022-09-10T01:40:01.259Z,2.33
2022-09-10T01:42:28.541Z,1.75
2022-09-10T01:44:57.883Z,2.67
2022-09-10T01:47:32.510Z,3.00
2022-09-10T01:50:17.317Z,3.22
2022-09-10T01:53:14.021Z,2.60
2022-09-10T01:55:59.524Z,2.85
2022-09-10T01:58:26.516Z,1.90
2022-09-10T02:01:11.917Z,3.30
2022-09-10T02:03:40.004Z,1.80
2022-09-10T02:06:09.461Z,2.33
2022-09-10T02:08:39.819Z,2.28
2022-09-10T02:11:09.755Z,2.08
2022-09-10T02:13:37.154Z,3.45
2022-09-10T02:16:06.291Z,2.63
2022-09-10T02:18:33.161Z,3.20
2022-09-10T02:21:02.803Z,1.95
2022-09-10T02:23:41.421Z,2.35
2022-09-10T02:26:09.503Z,3.20
2022-09-10T02:28:36.997Z,2.65
2022-09-10T02:31:04.079Z,2.42
2022-09-10T02:33:31.086Z,2.83
2022-09-10T02:35:58.884Z,2.83
2022-09-10T02:38:25.633Z,3.22
2022-09-10T02:40:52.434Z,2.28
2022-09-10T02:43:20.058Z,2.35
2022-09-10T02:45:46.903Z,3.10
2022-09-10T02:48:13.950Z,3.80
2022-09-10T02:50:40.870Z,2.63
2022-09-10T02:53:07.670Z,1.65
2022-09-10T02:55:34.463Z,2.25
2022-09-10T02:58:01.238Z,1.98
2022-09-10T03:00:28.127Z,3.60
2022-09-10T03:03:00.902Z,3.05
2022-09-10T03:05:29.664Z,3.17
2022-09-10T03:07:57.185Z,3.75
2022-09-10T03:10:24.461Z,2.20
2022-09-10T03:12:52.069Z,2.65
2022-09-10T03:15:20.584Z,2.95
2022-09-10T03:17:47.716Z,2.38
2022-09-10T03:20:14.726Z,2.78
2022-09-10T03:22:41.566Z,2.10
2022-09-10T03:25:08.572Z,2.35
2022-09-10T03:27:35.848Z,1.92
2022-09-10T03:30:03.403Z,2.67
2022-09-10T03:32:32.164Z,1.95
2022-09-10T03:35:00.017Z,4.38
2022-09-10T03:37:26.887Z,2.35
2022-09-10T03:39:53.749Z,2.55
2022-09-10T03:42:21.006Z,2.38
2022-09-10T03:44:47.737Z,4.13
2022-09-10T03:47:14.720Z,1.88
2022-09-10T03:49:41.515Z,2.55
2022-09-10T03:52:12.530Z,2.58
2022-09-10T03:54:40.005Z,2.78
2022-09-10T03:57:06.809Z,2.42
2022-09-10T03:59:33.565Z,3.05
2022-09-10T04:02:00.543Z,3.30
2022-09-10T04:04:27.516Z,2.42
2022-09-10T04:09:21.472Z,1.70
2022-09-10T04:11:48.260Z,2.55
2022-09-10T04:14:15.691Z,2.90
2022-09-10T04:16:42.594Z,2.13
2022-09-10T04:19:09.516Z,3.38
2022-09-10T04:21:36.378Z,4.13
2022-09-10T04:24:03.246Z,2.63
2022-09-10T04:26:31.240Z,2.08
2022-09-10T04:28:58.075Z,2.30
2022-09-10T04:31:25.177Z,2.28
2022-09-10T04:33:52.085Z,2.92
2022-09-10T04:36:19.221Z,2.17
2022-09-10T04:38:46.013Z,2.08
2022-09-10T04:41:15.488Z,2.50
2022-09-10T04:46:08.984Z,2.63
2022-09-10T04:48:35.800Z,2.95
2022-09-10T04:51:18.373Z,2.53
2022-09-10T04:53:46.124Z,2.55
2022-09-10T04:56:13.086Z,2.17
2022-09-10T04:58:41.246Z,2.08
2022-09-10T05:01:08.652Z,2.63
2022-09-10T05:03:35.838Z,2.53
2022-09-10T05:06:02.936Z,2.50
2022-09-10T05:08:30.145Z,2.38
2022-09-10T05:10:57.346Z,3.28
2022-09-10T05:13:24.275Z,1.75
2022-09-10T05:15:51.104Z,3.75
2022-09-10T05:18:17.939Z,2.03
2022-09-10T05:20:45.079Z,2.97
2022-09-10T05:25:39.173Z,1.85
2022-09-10T05:28:06.084Z,1.60
2022-09-10T05:30:33.210Z,1.55
2022-09-10T05:33:03.661Z,2.22
2022-09-10T05:35:30.607Z,3.10
2022-09-10T05:37:58.280Z,2.35
2022-09-10T05:40:25.506Z,2.58
2022-09-10T05:42:53.143Z,2.67
2022-09-10T05:45:20.272Z,2.33
2022-09-10T05:47:47.685Z,2.58
2022-09-10T05:50:14.569Z,2.08
2022-09-10T05:52:41.508Z,1.92
2022-09-10T05:55:11.797Z,2.45
2022-09-10T05:57:40.235Z,2.63
2022-09-10T06:00:10.724Z,2.33
2022-09-10T06:02:37.660Z,2.88
2022-09-10T06:05:04.866Z,2.75
2022-09-10T06:07:31.741Z,3.00
2022-09-10T06:09:58.553Z,1.92
2022-09-10T06:12:25.288Z,3.42
2022-09-10T06:14:52.691Z,2.03
2022-09-10T06:17:19.950Z,2.50
2022-09-10T06:19:46.861Z,1.95
2022-09-10T06:22:14.505Z,2.65
2022-09-10T06:24:41.265Z,2.30
2022-09-10T06:27:09.570Z,2.03
2022-09-10T06:29:39.165Z,5.07
2022-09-10T06:34:32.708Z,2.05
2022-09-10T06:36:59.565Z,3.28
2022-09-10T06:39:28.975Z,2.00
2022-09-10T06:41:55.766Z,2.25
2022-09-10T06:44:22.602Z,2.67
2022-09-10T06:49:36.559Z,1.50
2022-09-10T06:52:03.841Z,2.08
2022-09-10T06:54:30.602Z,2.38
2022-09-10T06:56:58.049Z,3.95
2022-09-10T06:59:24.973Z,2.72
2022-09-10T07:01:51.882Z,1.95
2022-09-10T07:04:18.774Z,2.80
2022-09-10T07:06:46.652Z,5.95
2022-09-10T07:09:14.292Z,6.65
2022-09-10T07:11:41.929Z,5.95
2022-09-10T07:14:12.627Z,4.95
2022-09-10T07:16:41.535Z,6.68
2022-09-10T07:19:10.267Z,5.70
2022-09-10T07:21:37.978Z,6.33
2022-09-10T07:24:05.924Z,4.82
2022-09-10T07:26:33.168Z,4.97
2022-09-10T07:29:00.149Z,4.07
2022-09-10T07:34:03.104Z,5.72
2022-09-10T07:36:30.828Z,4.75
2022-09-10T07:38:59.828Z,4.90
2022-09-10T07:41:29.991Z,4.40
2022-09-10T07:43:57.142Z,5.32
2022-09-10T07:46:25.449Z,4.95
2022-09-10T07:48:57.600Z,4.57
2022-09-10T07:51:26.315Z,5.40
2022-09-10T07:53:55.154Z,5.95
2022-09-10T07:56:23.267Z,4.55
2022-09-10T07:58:50.627Z,4.53
2022-09-10T08:01:19.683Z,4.30
2022-09-10T08:03:47.066Z,4.53
2022-09-10T08:06:14.378Z,3.35
2022-09-10T08:08:41.664Z,5.60
2022-09-10T08:11:11.905Z,4.82
2022-09-10T08:13:41.421Z,6.18
2022-09-10T08:16:09.951Z,4.15
2022-09-10T08:18:37.345Z,5.32
2022-09-10T08:21:05.402Z,5.43
2022-09-10T08:23:32.738Z,6.65
2022-09-10T08:25:59.584Z,4.68
2022-09-10T08:28:27.340Z,6.00
2022-09-10T08:31:07.477Z,5.57
2022-09-10T08:33:39.316Z,6.75
2022-09-10T08:36:08.724Z,10.68
2022-09-10T08:38:39.866Z,9.05
2022-09-10T08:41:28.378Z,5.47
2022-09-10T08:44:10.368Z,3.67
2022-09-10T08:46:42.128Z,5.13
2022-09-10T08:49:20.246Z,4.18
2022-09-10T08:51:49.285Z,6.63
2022-09-10T08:54:25.438Z,5.45
2022-09-10T08:56:53.464Z,5.68
2022-09-10T08:59:30.586Z,5.15
2022-09-10T09:02:01.012Z,4.82
2022-09-10T09:05:00.156Z,5.15
2022-09-10T09:07:34.885Z,4.05
2022-09-10T09:10:01.669Z,3.55
2022-09-10T09:12:34.247Z,4.50
2022-09-10T09:15:25.604Z,6.03
2022-09-10T09:18:01.436Z,6.35
2022-09-10T09:20:50.276Z,5.28
2022-09-10T09:23:35.971Z,5.90
2022-09-10T09:26:09.823Z,5.75
2022-09-10T09:29:02.519Z,6.35
2022-09-10T09:31:36.057Z,6.60
2022-09-10T09:34:07.204Z,6.07
2022-09-10T09:36:38.616Z,7.47
2022-09-10T09:39:14.491Z,8.93
2022-09-10T09:42:09.047Z,8.60
2022-09-10T09:44:56.455Z,6.95
2022-09-10T09:47:23.977Z,5.32
2022-09-10T09:49:50.761Z,4.28
2022-09-10T09:52:22.879Z,5.60
2022-09-10T09:55:14.927Z,5.32
2022-09-10T09:57:42.948Z,6.43
2022-09-10T10:00:37.147Z,5.88
2022-09-10T10:03:27.746Z,5.97
2022-09-10T10:06:06.108Z,6.45
2022-09-10T10:08:43.976Z,4.45
2022-09-10T10:13:46.988Z,8.20
2022-09-10T10:16:35.082Z,7.53
2022-09-10T10:19:02.348Z,6.80
2022-09-10T10:21:33.974Z,6.25
2022-09-10T10:24:04.110Z,4.95
2022-09-10T10:26:34.938Z,8.65
2022-09-10T10:29:07.168Z,4.28
2022-09-10T10:31:38.674Z,5.32
2022-09-10T10:34:20.561Z,5.05
2022-09-10T10:37:08.827Z,4.78
2022-09-10T10:39:50.489Z,4.68
2022-09-10T10:42:21.170Z,3.90
2022-09-10T10:45:25.823Z,6.10
2022-09-10T10:47:58.003Z,4.03
2022-09-10T10:50:31.625Z,4.28
2022-09-10T10:53:27.461Z,3.17
2022-09-10T10:56:20.289Z,4.57
2022-09-10T10:58:54.503Z,3.95
2022-09-10T11:01:24.074Z,10.98
2022-09-10T11:04:19.515Z,12.48
2022-09-10T11:06:54.177Z,10.88
2022-09-10T11:09:41.064Z,10.27
2022-09-10T11:12:19.339Z,12.45
2022-09-10T11:15:03.211Z,8.15
2022-09-10T11:17:41.234Z,9.80
2022-09-10T11:20:29.027Z,7.82
2022-09-10T11:23:21.339Z,6.87
2022-09-10T11:26:10.487Z,5.55
2022-09-10T11:28:42.013Z,4.70
2022-09-10T11:31:17.353Z,5.50
2022-09-10T11:34:04.656Z,4.97
2022-09-10T11:36:45.268Z,5.30
2022-09-10T11:39:38.858Z,4.32
2022-09-10T11:42:24.013Z,5.53
2022-09-10T11:44:56.841Z,7.50
2022-09-10T11:47:40.446Z,4.28
2022-09-10T11:50:34.494Z,6.30
2022-09-10T11:53:03.922Z,3.53
2022-09-10T11:56:00.033Z,3.78
2022-09-10T11:58:49.428Z,4.05
2022-09-10T12:01:19.371Z,4.43
2022-09-10T12:03:58.367Z,3.83
2022-09-10T12:06:38.365Z,2.70
2022-09-10T12:09:18.912Z,4.57
2022-09-10T12:11:54.779Z,4.03
2022-09-10T12:14:21.794Z,4.80
2022-09-10T12:17:08.679Z,4.35
2022-09-10T12:19:39.220Z,3.85
2022-09-10T12:22:20.353Z,4.20
2022-09-10T12:24:56.365Z,3.88
2022-09-10T12:27:49.714Z,4.97
2022-09-10T12:30:33.281Z,5.00
2022-09-10T12:33:07.412Z,3.60
2022-09-10T12:35:38.011Z,4.95
2022-09-10T12:38:43.080Z,4.40
2022-09-10T12:41:13.154Z,2.95
2022-09-10T12:43:43.379Z,5.32
2022-09-10T12:46:10.257Z,4.03
2022-09-10T12:48:39.961Z,3.47
2022-09-10T12:51:16.591Z,6.38
2022-09-10T12:54:00.720Z,4.82
2022-09-10T12:56:46.002Z,3.65
2022-09-10T12:59:30.392Z,5.18
2022-09-10T13:01:57.408Z,7.18
2022-09-10T13:04:32.985Z,5.68
2022-09-10T13:07:03.545Z,3.80
2022-09-10T13:09:41.476Z,4.28
2022-09-10T13:12:18.885Z,5.47
2022-09-10T13:14:47.851Z,5.63
2022-09-10T13:17:41.159Z,4.47
2022-09-10T13:20:20.823Z,4.50
2022-09-10T13:23:08.593Z,7.07
2022-09-10T13:25:43.190Z,4.40
2022-09-10T13:28:28.669Z,3.97
2022-09-10T13:31:28.533Z,4.30
2022-09-10T13:34:14.803Z,4.07
2022-09-10T13:37:12.207Z,2.97
2022-09-10T13:40:00.131Z,5.68
2022-09-10T13:43:04.805Z,3.80
2022-09-10T13:45:50.402Z,3.22
2022-09-10T13:48:27.492Z,3.90
2022-09-10T13:51:11.914Z,5.68
2022-09-10T13:53:44.433Z,6.75
2022-09-10T13:56:22.946Z,5.35
2022-09-10T13:59:03.240Z,4.68
2022-09-10T14:01:56.578Z,4.72
2022-09-10T14:04:28.420Z,3.42
2022-09-10T14:07:13.078Z,4.25
2022-09-10T14:09:48.584Z,3.28
2022-09-10T14:12:16.038Z,3.80
2022-09-10T14:14:46.690Z,3.22
2022-09-10T14:17:25.703Z,3.45
2022-09-10T14:20:06.247Z,5.53
2022-09-10T14:22:33.046Z,2.97
2022-09-10T14:25:01.765Z,2.42
2022-09-10T14:27:31.018Z,4.25
2022-09-10T14:30:29.427Z,3.72
2022-09-10T14:33:28.180Z,2.75
2022-09-10T14:35:57.969Z,5.45
2022-09-10T14:38:30.069Z,3.38
2022-09-10T14:41:05.493Z,3.97
2022-09-10T14:43:40.322Z,4.38
2022-09-10T14:46:09.077Z,5.18
2022-09-10T14:49:01.982Z,5.15
2022-09-10T14:51:28.722Z,2.60
2022-09-10T14:53:57.217Z,3.92
2022-09-10T14:56:30.252Z,3.58
2022-09-10T14:58:59.533Z,3.20
2022-09-10T15:01:26.791Z,3.80
2022-09-10T15:03:53.993Z,4.15
2022-09-10T15:06:26.019Z,3.85
2022-09-10T15:08:55.797Z,3.58
2022-09-10T15:11:24.268Z,3.63
2022-09-10T15:13:51.264Z,3.13
2022-09-10T15:16:18.151Z,2.88
2022-09-10T15:23:42.512Z,3.75
2022-09-10T15:26:13.715Z,2.28
2022-09-10T15:28:41.301Z,5.82
2022-09-10T15:31:08.580Z,3.53
2022-09-10T15:33:36.085Z,3.45
2022-09-10T15:36:03.284Z,3.10
2022-09-10T15:38:31.424Z,2.47
2022-09-10T15:41:12.606Z,4.65
2022-09-10T15:43:42.800Z,2.00
2022-09-10T15:46:10.958Z,2.25
2022-09-10T15:48:38.163Z,3.15
2022-09-10T15:51:09.184Z,1.95
2022-09-10T15:53:35.971Z,2.80
2022-09-10T15:56:03.924Z,2.38
2022-09-10T16:01:11.892Z,2.88
2022-09-10T16:03:44.287Z,2.42
2022-09-10T16:06:11.132Z,2.63
2022-09-10T16:08:38.601Z,5.95
2022-09-10T16:11:11.774Z,9.85
2022-09-10T16:13:39.742Z,14.63
2022-09-10T16:16:09.963Z,15.25
2022-09-10T16:18:37.185Z,10.20
2022-09-10T16:21:12.695Z,10.65
2022-09-10T16:23:41.159Z,8.80
2022-09-10T16:26:11.209Z,10.70
2022-09-10T16:28:38.038Z,9.20
2022-09-10T16:31:19.733Z,7.45
2022-09-10T16:33:46.909Z,9.27
2022-09-10T16:36:15.242Z,5.63
2022-09-10T16:38:43.530Z,7.15
2022-09-10T16:41:14.832Z,10.50
2022-09-10T16:43:42.890Z,8.43
2022-09-10T16:46:11.725Z,6.57
2022-09-10T16:48:40.710Z,6.03
2022-09-10T16:51:13.092Z,4.75
2022-09-10T16:53:40.772Z,7.45
2022-09-10T16:56:10.231Z,2.97
2022-09-10T16:58:37.495Z,6.10
2022-09-10T17:01:06.280Z,5.07
2022-09-10T17:03:33.089Z,4.28
2022-09-10T17:06:00.160Z,2.85
2022-09-10T17:08:29.127Z,3.25
2022-09-10T17:10:56.744Z,4.53
2022-09-10T17:13:23.584Z,2.97
2022-09-10T17:15:50.697Z,4.90
2022-09-10T17:18:17.468Z,2.78
2022-09-10T17:20:44.753Z,1.88
2022-09-10T17:23:13.364Z,3.63
2022-09-10T17:25:40.186Z,2.37
2022-09-10T17:28:06.945Z,3.15
2022-09-10T17:30:33.766Z,3.58
2022-09-10T17:33:00.594Z,5.53
2022-09-10T17:35:27.393Z,3.05
2022-09-10T17:37:54.151Z,4.25
2022-09-10T17:40:21.135Z,2.30
2022-09-10T17:42:49.257Z,2.45
2022-09-10T17:45:16.619Z,3.40
2022-09-10T17:47:44.325Z,3.40
2022-09-10T17:50:11.097Z,3.97
2022-09-10T17:52:37.865Z,2.72
2022-09-10T17:55:04.955Z,5.43
2022-09-10T17:57:31.774Z,2.22
2022-09-10T17:59:58.621Z,2.90
2022-09-10T18:02:25.455Z,2.20
2022-09-10T18:04:52.304Z,2.17
2022-09-10T18:07:19.093Z,1.50
2022-09-10T18:09:45.878Z,2.67
2022-09-10T18:12:14.583Z,4.03
2022-09-10T18:14:42.091Z,3.20
2022-09-10T18:17:08.961Z,3.75
2022-09-10T18:19:35.790Z,2.90
2022-09-10T18:22:02.821Z,3.42
2022-09-10T18:24:30.056Z,3.40
2022-09-10T18:26:57.359Z,3.33
2022-09-10T18:29:26.794Z,3.80
2022-09-10T18:31:55.899Z,2.70
2022-09-10T18:34:25.109Z,2.13
2022-09-10T18:36:54.637Z,2.38
2022-09-10T18:39:22.506Z,3.85
2022-09-10T18:41:49.403Z,3.05
2022-09-10T18:44:20.684Z,1.80
2022-09-10T18:46:48.451Z,1.85
2022-09-10T18:49:20.915Z,2.92
2022-09-10T18:51:48.530Z,2.80
2022-09-10T18:54:16.576Z,2.33
2022-09-10T18:56:44.826Z,3.05
2022-09-10T18:59:13.297Z,2.85
2022-09-10T19:01:40.901Z,2.15
2022-09-10T19:04:08.505Z,4.25
2022-09-10T19:06:37.910Z,4.53
2022-09-10T19:09:10.848Z,2.25
2022-09-10T19:11:39.901Z,3.70
2022-09-10T19:14:13.714Z,3.33
2022-09-10T19:16:41.396Z,4.13
2022-09-10T19:19:08.428Z,4.13
2022-09-10T19:21:38.370Z,2.58
2022-09-10T19:24:05.273Z,3.22
2022-09-10T19:26:33.986Z,3.78
2022-09-10T19:29:02.160Z,3.47
2022-09-10T19:31:31.301Z,2.50
2022-09-10T19:34:00.430Z,3.72
2022-09-10T19:36:28.313Z,5.28
2022-09-10T19:38:55.236Z,5.43
2022-09-10T19:41:22.776Z,4.32
2022-09-10T19:43:51.072Z,7.30
2022-09-10T19:46:20.189Z,3.88
2022-09-10T19:48:48.080Z,2.45
2022-09-10T19:53:48.038Z,2.90
2022-09-10T19:56:20.461Z,3.97
2022-09-10T19:58:52.173Z,4.88
2022-09-10T20:01:22.108Z,4.03
2022-09-10T20:03:49.946Z,2.55
2022-09-10T20:06:19.383Z,3.92
2022-09-10T20:08:50.452Z,2.50
2022-09-10T20:11:23.034Z,2.17
2022-09-10T20:13:53.414Z,4.28
2022-09-10T20:16:20.371Z,4.80
2022-09-10T20:18:47.153Z,2.88
2022-09-10T20:21:16.248Z,3.47
2022-09-10T20:23:46.413Z,5.38
2022-09-10T20:26:18.993Z,4.30
2022-09-10T20:28:50.644Z,3.95
2022-09-10T20:31:17.612Z,4.43
2022-09-10T20:33:45.185Z,4.65
2022-09-10T20:36:15.149Z,3.90
2022-09-10T20:38:43.202Z,4.03
2022-09-10T20:41:12.076Z,4.00
2022-09-10T20:43:39.214Z,4.80
2022-09-10T20:46:09.128Z,4.30
2022-09-10T20:48:35.911Z,4.10
2022-09-10T20:51:02.711Z,5.95
2022-09-10T20:53:29.486Z,9.38
2022-09-10T20:56:07.858Z,9.70
2022-09-10T20:58:36.955Z,9.05
2022-09-10T21:01:21.039Z,9.27
2022-09-10T21:03:49.730Z,8.05
2022-09-10T21:06:19.632Z,7.90
2022-09-10T21:08:47.630Z,6.95
2022-09-10T21:11:18.081Z,6.85
2022-09-10T21:13:49.766Z,6.35
2022-09-10T21:16:18.765Z,6.60
2022-09-10T21:18:54.329Z,6.35
2022-09-10T21:21:23.079Z,6.32
2022-09-10T21:23:54.846Z,6.57
2022-09-10T21:26:26.086Z,6.43
2022-09-10T21:28:57.959Z,5.68
2022-09-10T21:31:26.054Z,5.95
2022-09-10T21:33:54.501Z,5.40
2022-09-10T21:36:21.752Z,5.63
2022-09-10T21:38:49.334Z,5.10
2022-09-10T21:41:17.860Z,6.65
2022-09-10T21:43:46.325Z,5.00
2022-09-10T21:46:14.163Z,9.20
2022-09-10T21:48:42.408Z,10.75
2022-09-10T21:51:20.088Z,10.43
2022-09-10T21:53:47.454Z,10.15
2022-09-10T21:56:17.871Z,10.00
2022-09-10T21:58:45.477Z,8.73
2022-09-10T22:01:14.661Z,8.27
2022-09-10T22:03:41.979Z,7.50
2022-09-10T22:06:13.918Z,7.47
2022-09-10T22:08:45.654Z,7.68
2022-09-10T22:11:19.810Z,7.70
2022-09-10T22:13:51.935Z,7.63
2022-09-10T22:16:19.893Z,7.10
2022-09-10T22:18:46.947Z,7.00
2022-09-10T22:21:13.752Z,6.88
2022-09-10T22:26:11.693Z,6.70
2022-09-10T22:28:38.968Z,5.70
2022-09-10T22:31:10.926Z,8.35
2022-09-10T22:33:39.142Z,9.77
2022-09-10T22:36:16.036Z,8.10
2022-09-10T22:38:43.365Z,8.05
2022-09-10T22:41:10.969Z,7.18
2022-09-10T22:43:38.594Z,7.05
2022-09-10T22:46:07.057Z,6.10
2022-09-10T22:48:36.425Z,6.10
2022-09-10T22:51:07.916Z,6.13
2022-09-10T22:53:35.453Z,6.50
2022-09-10T22:56:02.793Z,5.38
2022-09-10T22:58:29.602Z,5.18
2022-09-10T23:00:56.498Z,5.40
2022-09-10T23:03:23.339Z,5.18
2022-09-10T23:05:50.181Z,5.20
2022-09-10T23:08:17.062Z,5.15
2022-09-10T23:10:43.885Z,5.50
2022-09-10T23:13:10.674Z,6.15
2022-09-10T23:15:37.431Z,5.20
2022-09-10T23:18:04.245Z,5.10
2022-09-10T23:20:30.993Z,4.85
2022-09-10T23:22:57.742Z,94.32
2022-09-10T23:25:24.516Z,149.77
2022-09-10T23:27:51.357Z,125.60
2022-09-10T23:30:18.337Z,112.45
2022-09-10T23:32:46.465Z,102.78
2022-09-10T23:35:13.226Z,91.55
2022-09-10T23:37:40.052Z,88.80
2022-09-10T23:40:08.550Z,75.75
2022-09-10T23:42:35.531Z,69.55
2022-09-10T23:45:02.372Z,66.22
2022-09-10T23:47:29.125Z,61.83
2022-09-10T23:49:56.081Z,57.95
2022-09-10T23:52:23.095Z,58.63
2022-09-10T23:57:17.464Z,50.63
2022-09-10T23:59:44.780Z,50.75
